Time;durP1;ratioP1;P1;durP2;ratioP2;P2;SDS_P1;SDS_P2;PMS_P1;PMS_P2;Temp;Humidity;BMP_temperature;BMP_pressure;BME280_temperature;BME280_humidity;BME280_pressure;Samples;Min_cycle;Max_cycle;Signal;HPM_P1;HPM_P2
2023/06/24 00:02:13;;;;;;;5.43;3.80;;;;;;;24.87;46.81;98836.78;5036996;28;20033;-68
2023/06/24 00:04:39;;;;;;;7.82;3.88;;;;;;;24.82;46.87;98830.44;5053501;28;20029;-68
2023/06/24 00:07:05;;;;;;;5.68;3.95;;;;;;;24.74;46.28;98832.28;5036803;28;20186;-68
2023/06/24 00:09:30;;;;;;;6.35;4.10;;;;;;;24.70;46.92;98830.22;5036625;28;20036;-68
2023/06/24 00:11:58;;;;;;;7.97;3.67;;;;;;;24.69;46.98;98828.63;5053214;28;20436;-68
2023/06/24 00:14:24;;;;;;;5.97;3.60;;;;;;;24.70;47.11;98836.41;5020615;28;20389;-68
2023/06/24 00:16:53;;;;;;;4.95;3.97;;;;;;;24.65;46.94;98822.03;5053250;28;20044;-68
2023/06/24 00:19:19;;;;;;;6.97;3.95;;;;;;;24.61;46.70;98829.63;5053125;28;20021;-68
2023/06/24 00:21:44;;;;;;;4.85;3.70;;;;;;;24.55;47.00;98822.41;5036740;28;20041;-68
2023/06/24 00:24:10;;;;;;;6.60;3.80;;;;;;;24.52;46.80;98810.31;5054310;28;20496;-68
2023/06/24 00:26:35;;;;;;;6.85;3.63;;;;;;;24.47;46.90;98802.09;5019910;28;20124;-69
2023/06/24 00:29:01;;;;;;;3.90;3.38;;;;;;;24.51;46.94;98815.84;5036239;28;20060;-68
2023/06/24 00:31:26;;;;;;;6.13;3.85;;;;;;;24.51;47.13;98818.50;5054461;28;20028;-68
2023/06/24 00:33:52;;;;;;;8.55;3.95;;;;;;;24.43;46.93;98818.72;5052816;28;20037;-68
2023/06/24 00:36:18;;;;;;;8.00;3.90;;;;;;;24.40;47.15;98809.31;5054069;28;20021;-69
2023/06/24 00:38:43;;;;;;;6.47;4.10;;;;;;;24.43;47.21;98816.91;5052803;28;20480;-68
2023/06/24 00:41:09;;;;;;;11.65;3.88;;;;;;;24.36;47.07;98814.19;5036242;28;20029;-68
2023/06/24 00:43:35;;;;;;;8.55;4.20;;;;;;;24.34;47.27;98804.78;5035789;28;20068;-68
2023/06/24 00:46:00;;;;;;;6.15;3.80;;;;;;;24.30;46.78;98807.00;5036194;28;20029;-68
2023/06/24 00:48:26;;;;;;;5.25;3.50;;;;;;;24.28;47.02;98798.41;5052588;28;20035;-67
2023/06/24 00:50:51;;;;;;;6.65;3.85;;;;;;;24.26;47.30;98797.78;5052500;28;20033;-68
2023/06/24 00:53:17;;;;;;;7.88;3.95;;;;;;;24.20;47.02;98794.09;5052509;28;20065;-68
2023/06/24 00:55:45;;;;;;;8.32;3.90;;;;;;;24.15;47.01;98783.22;5035939;28;20555;-68
2023/06/24 00:58:15;;;;;;;5.50;3.70;;;;;;;24.15;47.21;98787.75;5036444;28;20094;-69
2023/06/24 01:00:41;;;;;;;6.80;3.85;;;;;;;24.08;47.25;98779.72;5036576;28;20037;-68
2023/06/24 01:03:06;;;;;;;4.97;3.60;;;;;;;24.10;47.40;98795.50;5052387;28;20128;-68
2023/06/24 01:05:35;;;;;;;4.43;3.58;;;;;;;24.07;47.40;98793.25;5019200;28;20416;-68
2023/06/24 01:08:00;;;;;;;4.30;3.35;;;;;;;24.01;47.36;98792.22;5036193;28;20025;-68
2023/06/24 01:10:26;;;;;;;6.25;4.13;;;;;;;23.98;47.31;98796.09;5035675;28;20507;-68
2023/06/24 01:12:51;;;;;;;11.93;4.30;;;;;;;23.94;47.64;98789.56;5053397;28;20037;-68
2023/06/24 01:15:17;;;;;;;6.93;4.22;;;;;;;23.95;47.83;98791.19;5051983;28;20029;-68
2023/06/24 01:18:10;;;;;;;5.68;3.92;;;;;;;23.94;47.80;98788.72;5035212;28;20465;-68
2023/06/24 01:21:05;;;;;;;5.10;3.72;;;;;;;23.95;47.86;98790.38;5053116;28;20025;-68
2023/06/24 01:24:12;;;;;;;7.00;3.83;;;;;;;23.97;47.73;98794.50;5031307;28;20042;-69
2023/06/24 01:27:15;;;;;;;6.15;3.75;;;;;;;23.94;47.79;98788.72;5014685;28;20033;-68
2023/06/24 01:29:48;;;;;;;5.05;3.78;;;;;;;23.82;48.03;98780.47;4953301;29;20134;-69
2023/06/24 01:32:20;;;;;;;6.38;3.97;;;;;;;23.82;48.05;98777.81;4952914;29;20031;-68
2023/06/24 01:35:00;;;;;;;8.60;4.20;;;;;;;23.84;47.96;98786.44;4952685;29;20085;-69
2023/06/24 01:37:37;;;;;;;5.93;4.03;;;;;;;23.85;47.90;98785.44;4952505;29;20495;-68
2023/06/24 01:40:21;;;;;;;6.50;4.00;;;;;;;23.86;47.83;98787.06;4936550;29;20133;-68
2023/06/24 01:42:47;;;;;;;6.88;3.55;;;;;;;23.85;47.77;98782.78;4952360;29;20644;-69
2023/06/24 01:45:14;;;;;;;7.32;3.78;;;;;;;23.84;48.04;98787.25;4936676;29;20051;-68
2023/06/24 01:47:40;;;;;;;8.27;3.80;;;;;;;23.80;47.94;98790.53;4936505;29;20047;-68
2023/06/24 01:50:06;;;;;;;5.22;3.80;;;;;;;23.72;48.28;98796.00;4952136;29;20031;-68
2023/06/24 01:52:32;;;;;;;6.43;3.90;;;;;;;23.66;48.35;98790.47;4936479;29;20098;-69
2023/06/24 01:54:58;;;;;;;11.82;3.78;;;;;;;23.66;48.51;98792.31;4952340;29;20062;-68
2023/06/24 01:57:24;;;;;;;4.38;3.53;;;;;;;23.65;48.28;98783.50;4936402;29;20035;-68
2023/06/24 01:59:49;;;;;;;7.40;4.28;;;;;;;23.60;48.33;98777.94;4964386;28;20504;-69
2023/06/24 02:02:15;;;;;;;6.43;3.90;;;;;;;23.54;48.69;98778.75;4942775;28;20038;-68
2023/06/24 02:04:40;;;;;;;9.38;4.15;;;;;;;23.51;48.90;98781.00;4995427;28;20048;-68
2023/06/24 02:07:06;;;;;;;6.20;4.15;;;;;;;23.52;48.91;98780.78;5018100;28;20028;-68
2023/06/24 02:09:32;;;;;;;8.15;3.97;;;;;;;23.53;48.84;98779.78;5034430;28;20078;-68
2023/06/24 02:11:58;;;;;;;5.32;3.45;;;;;;;23.55;48.99;98779.59;5017734;28;20045;-68
2023/06/24 02:14:24;;;;;;;9.63;4.20;;;;;;;23.51;48.79;98779.16;5051263;28;20488;-68
2023/06/24 02:16:49;;;;;;;6.20;4.05;;;;;;;23.47;49.02;98789.38;5018164;28;20045;-68
2023/06/24 02:19:17;;;;;;;5.40;4.30;;;;;;;23.47;48.74;98786.72;5034478;28;20041;-68
2023/06/24 02:21:43;;;;;;;4.97;4.00;;;;;;;23.51;48.58;98799.66;5035292;28;20119;-68
2023/06/24 02:24:08;;;;;;;7.07;3.67;;;;;;;23.49;48.67;98795.31;5034510;28;20032;-68
2023/06/24 02:26:35;;;;;;;4.85;3.63;;;;;;;23.48;48.77;98795.53;5017934;28;20107;-68
2023/06/24 02:29:01;;;;;;;5.45;4.25;;;;;;;23.44;48.64;98794.28;5017685;28;20485;-68
2023/06/24 02:31:26;;;;;;;5.70;3.85;;;;;;;23.37;48.57;98794.28;5034280;28;20037;-68
2023/06/24 02:33:52;;;;;;;6.88;3.92;;;;;;;23.35;48.47;98806.13;5050966;28;20044;-68
2023/06/24 02:36:17;;;;;;;6.97;4.50;;;;;;;23.35;48.64;98800.81;5052579;28;20029;-68
2023/06/24 02:38:43;;;;;;;6.03;3.90;;;;;;;23.35;48.25;98798.16;5017660;28;20025;-68
2023/06/24 02:41:08;;;;;;;9.90;4.20;;;;;;;23.30;48.62;98802.22;5034482;28;20083;-67
2023/06/24 02:43:35;;;;;;;6.78;3.85;;;;;;;23.32;49.02;98812.66;5033947;28;20041;-67
2023/06/24 02:46:01;;;;;;;7.78;3.90;;;;;;;23.28;48.95;98811.44;5034494;28;20032;-67
2023/06/24 02:48:28;;;;;;;9.35;4.18;;;;;;;23.27;48.79;98810.59;5017792;28;20033;-68
2023/06/24 02:50:53;;;;;;;10.90;4.13;;;;;;;23.30;48.62;98810.19;5034278;28;20033;-67
2023/06/24 02:53:19;;;;;;;6.55;4.22;;;;;;;23.36;48.79;98823.78;5034049;28;20454;-68
2023/06/24 02:55:44;;;;;;;7.82;4.38;;;;;;;23.42;48.67;98825.63;5050750;28;20029;-68
2023/06/24 02:58:10;;;;;;;6.53;4.03;;;;;;;23.43;48.66;98827.28;5017791;28;20538;-68
2023/06/24 03:00:36;;;;;;;5.60;3.78;;;;;;;23.46;48.23;98826.88;5017468;28;20025;-68
2023/06/24 03:03:02;;;;;;;5.95;4.05;;;;;;;23.60;47.79;98831.25;5034023;28;20067;-68
2023/06/24 03:05:27;;;;;;;9.60;3.90;;;;;;;23.83;47.01;98836.28;5051150;28;20115;-68
2023/06/24 03:07:53;;;;;;;6.18;3.85;;;;;;;24.07;46.49;98835.91;5034399;28;20033;-68
2023/06/24 03:10:18;;;;;;;10.73;3.90;;;;;;;24.29;45.97;98837.41;5017761;28;20516;-67
2023/06/24 03:12:44;;;;;;;5.88;3.75;;;;;;;24.56;45.22;98824.91;5038181;28;20064;-68
2023/06/24 03:15:09;;;;;;;5.38;3.80;;;;;;;24.84;44.75;98837.22;5054449;28;20029;-68
2023/06/24 03:17:36;;;;;;;7.13;4.05;;;;;;;25.20;44.19;98835.91;5037894;28;20052;-69
2023/06/24 03:20:02;;;;;;;7.65;3.78;;;;;;;25.58;43.71;98834.38;5037601;28;20025;-71
2023/06/24 03:22:27;;;;;;;19.25;4.28;;;;;;;26.11;44.47;98841.34;5021340;28;20048;-78
2023/06/24 03:24:53;;;;;;;7.43;3.70;;;;;;;26.64;42.88;98834.78;5025823;28;20032;-81
2023/06/24 03:27:18;;;;;;;5.63;3.72;;;;;;;27.11;41.99;98839.72;5046138;28;20044;-82
2023/06/24 03:29:44;;;;;;;13.45;3.53;;;;;;;27.56;40.99;98840.28;5043843;28;20059;-80
2023/06/24 03:32:10;;;;;;;9.48;3.58;;;;;;;28.00;40.21;98845.50;5056174;28;20029;-81
2023/06/24 03:34:35;;;;;;;9.10;3.50;;;;;;;28.42;39.64;98836.63;5055557;28;20079;-81
2023/06/24 03:37:01;;;;;;;6.57;3.60;;;;;;;28.86;38.83;98839.81;5021192;28;20025;-80
2023/06/24 03:39:26;;;;;;;8.73;3.28;;;;;;;29.25;38.22;98831.31;5055362;28;20025;-81
2023/06/24 03:41:52;;;;;;;7.97;3.22;;;;;;;29.63;37.43;98830.72;5037771;28;20086;-81
2023/06/24 03:44:17;;;;;;;6.68;3.10;;;;;;;30.09;36.92;98839.69;5053970;28;20033;-80
2023/06/24 03:46:43;;;;;;;7.80;3.22;;;;;;;30.51;36.05;98830.44;5053507;28;20510;-78
2023/06/24 03:49:08;;;;;;;7.28;3.28;;;;;;;30.89;35.20;98833.44;5054925;28;20044;-78
2023/06/24 03:51:34;;;;;;;8.52;3.83;;;;;;;31.27;34.56;98827.22;5054002;28;20025;-77
2023/06/24 03:53:59;;;;;;;6.60;3.63;;;;;;;31.73;34.07;98838.59;5053625;28;20037;-77
2023/06/24 03:56:25;;;;;;;4.45;3.22;;;;;;;32.10;33.52;98842.50;5054481;28;20029;-77
2023/06/24 03:58:50;;;;;;;9.23;3.15;;;;;;;32.45;32.97;98843.88;5053302;28;20090;-77
2023/06/24 04:01:18;;;;;;;8.07;3.20;;;;;;;32.85;32.51;98845.28;5053344;28;20067;-77
2023/06/24 04:03:44;;;;;;;5.05;3.13;;;;;;;33.22;32.26;98841.72;5053436;28;20041;-77
2023/06/24 04:06:10;;;;;;;6.20;3.10;;;;;;;33.62;31.46;98847.56;5054442;28;20035;-77
2023/06/24 04:08:39;;;;;;;6.65;3.25;;;;;;;34.03;30.45;98850.38;5053493;28;20044;-77
2023/06/24 04:11:04;;;;;;;6.47;3.20;;;;;;;34.42;30.23;98858.03;5037186;28;20029;-78
2023/06/24 04:13:30;;;;;;;6.22;3.10;;;;;;;34.82;29.81;98850.97;5053395;28;20091;-78
2023/06/24 04:15:55;;;;;;;7.03;3.30;;;;;;;35.25;29.25;98858.75;5036800;28;20037;-77
2023/06/24 04:18:21;;;;;;;4.13;3.13;;;;;;;35.65;28.47;98855.06;5054330;28;20036;-77
2023/06/24 04:20:46;;;;;;;5.68;3.05;;;;;;;36.03;28.27;98858.13;5054515;28;20107;-81
2023/06/24 04:23:14;;;;;;;8.38;3.22;;;;;;;36.42;27.55;98848.38;5036064;28;20029;-70
2023/06/24 04:25:39;;;;;;;7.13;2.85;;;;;;;36.82;27.30;98859.16;5054151;28;20025;-71
2023/06/24 04:28:05;;;;;;;10.48;3.15;;;;;;;37.15;26.78;98843.00;5036174;28;20511;-70
2023/06/24 04:30:31;;;;;;;11.80;2.83;;;;;;;37.47;26.68;98847.84;5052934;28;20523;-70
2023/06/24 04:32:57;;;;;;;10.35;3.30;;;;;;;37.87;26.46;98853.03;5052804;28;20025;-71
2023/06/24 04:35:22;;;;;;;20.95;3.17;;;;;;;38.22;25.91;98853.63;5053755;28;20577;-69
2023/06/24 04:37:50;;;;;;;11.88;3.22;;;;;;;38.57;25.66;98854.94;5036750;28;20036;-76
2023/06/24 04:40:17;;;;;;;9.75;3.05;;;;;;;38.91;25.10;98846.44;5036506;28;20121;-73
2023/06/24 04:42:42;;;;;;;10.45;2.90;;;;;;;39.34;24.74;98855.47;5035987;28;20094;-74
2023/06/24 04:45:08;;;;;;;10.68;3.05;;;;;;;39.75;24.19;98857.34;5019307;28;20492;-74
2023/06/24 04:47:34;;;;;;;5.47;2.85;;;;;;;40.07;24.44;98845.41;5052448;28;20025;-75
2023/06/24 04:49:59;;;;;;;7.70;3.05;;;;;;;40.49;23.94;98840.56;5035942;28;20029;-74
2023/06/24 04:52:25;;;;;;;8.73;2.70;;;;;;;40.84;23.33;98845.41;5019332;28;20072;-73
2023/06/24 04:54:50;;;;;;;26.83;3.67;;;;;;;41.17;23.52;98847.81;5019339;28;20499;-71
2023/06/24 04:57:29;;;;;;;18.40;3.40;;;;;;;41.34;23.99;98847.06;5052532;28;20484;-72
2023/06/24 04:59:55;;;;;;;21.30;3.63;;;;;;;41.66;24.11;98853.25;5052645;28;20021;-70
2023/06/24 05:02:22;;;;;;;25.15;3.35;;;;;;;41.88;23.29;98858.59;5053458;28;20565;-77
2023/06/24 05:04:47;;;;;;;;;;;;;;;41.97;23.45;98864.06;5019754;28;20107;-72
2023/06/24 05:07:13;;;;;;;28.43;3.63;;;;;;;42.29;23.40;98853.78;5035129;28;19999;-71
2023/06/24 05:09:39;;;;;;;21.23;2.97;;;;;;;42.56;22.61;98851.78;5035350;28;20086;-75
2023/06/24 05:12:05;;;;;;;29.27;3.83;;;;;;;42.87;22.44;98858.94;5053210;28;20033;-83
2023/06/24 05:14:30;;;;;;;19.30;3.28;;;;;;;43.14;21.96;98865.94;5052605;28;20138;-76
2023/06/24 05:16:56;;;;;;;20.73;3.73;;;;;;;43.25;21.51;98861.69;5052832;28;20040;-74
2023/06/24 05:19:21;;;;;;;18.27;3.40;;;;;;;43.42;21.36;98860.00;5052430;28;20090;-76
2023/06/24 05:21:47;;;;;;;17.90;3.60;;;;;;;43.59;20.90;98865.38;5035838;28;20063;-75
2023/06/24 05:24:12;;;;;;;18.90;3.23;;;;;;;43.82;20.71;98862.31;5039308;28;20507;-88
2023/06/24 05:26:38;;;;;;;20.73;3.57;;;;;;;44.03;20.39;98867.78;5027649;28;20460;-83
2023/06/24 05:29:03;;;;;;;18.73;3.47;;;;;;;44.31;19.75;98862.53;5035732;28;20048;-87
2023/06/24 05:31:29;;;;;;;20.10;3.07;;;;;;;44.60;19.54;98869.88;5052806;28;20141;-86
2023/06/24 05:33:54;;;;;;;12.43;2.97;;;;;;;44.85;18.92;98864.41;5051559;28;20454;-83
2023/06/24 05:36:20;;;;;;;14.27;3.00;;;;;;;45.04;18.74;98863.88;5053553;28;20032;-89
2023/06/24 05:38:45;;;;;;;9.93;2.70;;;;;;;45.11;18.95;98861.34;5035416;28;20037;-80
2023/06/24 05:41:11;;;;;;;8.13;2.70;;;;;;;45.53;18.05;98868.53;5035014;28;20500;-85
2023/06/24 05:43:36;;;;;;;10.27;2.57;;;;;;;45.78;17.36;98852.75;5051353;28;20044;-77
2023/06/24 05:46:02;;;;;;;9.17;2.60;;;;;;;46.09;17.33;98859.53;5018553;28;20049;-75
2023/06/24 05:48:27;;;;;;;14.13;3.10;;;;;;;46.28;18.03;98856.16;5035461;28;20043;-84
2023/06/24 05:50:53;;;;;;;11.57;2.93;;;;;;;46.29;18.09;98856.94;5018440;28;20476;-81
2023/06/24 05:53:18;;;;;;;14.63;3.20;;;;;;;46.23;18.43;98865.47;5052859;28;20029;-80
2023/06/24 05:55:44;;;;;;;21.90;3.57;;;;;;;46.12;18.69;98855.28;5035037;28;20037;-82
2023/06/24 05:58:09;;;;;;;17.37;3.17;;;;;;;46.07;18.02;98864.63;5034744;28;20036;-81
2023/06/24 06:00:36;;;;;;;10.43;3.10;;;;;;;45.96;18.59;98858.81;5052461;28;20036;-82
2023/06/24 06:03:01;;;;;;;11.73;3.40;;;;;;;46.18;17.38;98857.47;5051734;28;20040;-87
2023/06/24 06:05:27;;;;;;;11.43;2.70;;;;;;;46.40;17.16;98863.53;5052831;28;20033;-84
2023/06/24 06:07:53;;;;;;;9.10;3.03;;;;;;;46.53;16.57;98867.84;5031641;28;20033;-89
2023/06/24 06:10:19;;;;;;;8.02;2.63;;;;;;;46.68;16.09;98866.25;5033604;28;20029;-84
2023/06/24 06:12:45;;;;;;;5.05;2.60;;;;;;;46.75;15.63;98860.94;5014821;28;20045;-83
2023/06/24 06:15:10;;;;;;;6.57;2.57;;;;;;;46.87;15.84;98865.53;4999575;28;20041;-84
2023/06/24 06:17:36;;;;;;;7.37;2.73;;;;;;;46.92;15.27;98862.56;5031450;28;20540;-87
2023/06/24 06:20:01;;;;;;;6.70;2.83;;;;;;;47.02;15.17;98863.16;5016702;28;20021;-88
2023/06/24 06:22:27;;;;;;;4.70;2.67;;;;;;;47.07;15.34;98860.94;5015782;28;20033;-84
2023/06/24 06:24:52;;;;;;;5.80;2.97;;;;;;;47.15;15.03;98861.13;5015108;28;20037;-86
2023/06/24 06:27:18;;;;;;;8.27;2.63;;;;;;;47.17;14.79;98861.53;5031713;28;20044;-83
2023/06/24 06:29:44;;;;;;;6.30;2.67;;;;;;;47.21;14.81;98860.47;5032522;28;20092;-86
2023/06/24 06:32:09;;;;;;;5.55;2.22;;;;;;;47.28;13.30;98857.06;5049001;28;20040;-85
2023/06/24 06:34:36;;;;;;;8.37;2.50;;;;;;;47.29;14.12;98856.72;5023401;28;20033;-91
2023/06/24 06:37:02;;;;;;;7.90;2.63;;;;;;;47.33;13.15;98854.03;5020226;28;20592;-83
2023/06/24 06:39:28;;;;;;;4.90;2.60;;;;;;;47.29;13.70;98851.19;5034753;28;20033;-91
2023/06/24 06:41:53;;;;;;;4.85;2.50;;;;;;;47.27;12.26;98852.69;5019048;28;20390;-83
2023/06/24 06:44:19;;;;;;;11.47;3.00;;;;;;;47.06;12.92;98855.75;5048909;28;20037;-85
2023/06/24 06:46:44;;;;;;;10.10;2.73;;;;;;;47.02;11.88;98852.09;5035004;28;20055;-81
2023/06/24 06:49:10;;;;;;;8.80;2.80;;;;;;;47.01;11.73;98853.28;5036243;28;20026;-82
2023/06/24 06:51:36;;;;;;;6.80;2.33;;;;;;;46.90;12.11;98836.41;5034916;28;20578;-77
2023/06/24 06:54:04;;;;;;;9.93;2.67;;;;;;;46.79;12.40;98843.66;5035406;28;20109;-85
2023/06/24 06:56:30;;;;;;;9.57;2.60;;;;;;;46.71;11.81;98843.47;5018422;28;20049;-81
2023/06/24 06:58:55;;;;;;;6.57;2.50;;;;;;;46.58;12.35;98847.47;5051802;28;20029;-85
2023/06/24 07:01:21;;;;;;;11.87;2.80;;;;;;;46.45;12.40;98846.75;5018622;28;20022;-84
2023/06/24 07:03:46;;;;;;;5.73;2.63;;;;;;;46.38;12.32;98852.06;5018324;28;20095;-81
2023/06/24 07:06:12;;;;;;;16.20;3.10;;;;;;;46.10;13.19;98841.03;5018312;28;20407;-82
2023/06/24 07:08:37;;;;;;;18.50;3.57;;;;;;;45.67;17.59;98843.34;5035326;28;20404;-85
2023/06/24 07:11:03;;;;;;;15.80;4.17;;;;;;;45.32;18.53;98858.44;5018922;28;20061;-88
2023/06/24 07:13:28;;;;;;;13.17;3.53;;;;;;;45.01;18.01;98853.56;5035201;28;20041;-86
2023/06/24 07:15:54;;;;;;;19.70;4.13;;;;;;;44.90;18.51;98852.34;5018287;28;20057;-83
2023/06/24 07:18:19;;;;;;;23.30;4.00;;;;;;;44.71;19.32;98850.16;5051186;28;20033;-74
2023/06/24 07:20:45;;;;;;;13.27;3.40;;;;;;;44.11;19.24;98841.38;5034581;28;20051;-74
2023/06/24 07:23:11;;;;;;;17.57;3.67;;;;;;;43.76;18.19;98841.66;5051661;28;20412;-83
2023/06/24 07:25:36;;;;;;;35.47;4.67;;;;;;;43.80;19.40;98848.91;5034532;28;20052;-86
2023/06/24 07:28:02;;;;;;;22.87;4.00;;;;;;;43.72;19.60;98852.50;5017606;28;20056;-76
2023/06/24 07:30:27;;;;;;;20.03;3.90;;;;;;;43.28;20.79;98850.03;5017349;28;20116;-78
2023/06/24 07:32:53;;;;;;;19.63;4.00;;;;;;;42.84;19.46;98852.16;5034095;28;20114;-77
2023/06/24 07:35:19;;;;;;;69.90;15.17;;;;;;;42.64;16.81;98854.50;5034325;28;20472;-80
2023/06/24 07:37:45;;;;;;;57.83;11.50;;;;;;;42.51;18.44;98851.94;5050901;28;20121;-85
2023/06/24 07:40:10;;;;;;;49.70;9.57;;;;;;;42.53;19.61;98852.44;5034043;28;20033;-81
2023/06/24 07:42:36;;;;;;;15.70;4.27;;;;;;;42.50;16.19;98861.31;5034418;28;20416;-84
2023/06/24 07:45:01;;;;;;;9.77;3.70;;;;;;;42.36;15.89;98845.84;5017531;28;20408;-80
2023/06/24 07:47:27;;;;;;;13.33;3.60;;;;;;;42.31;16.53;98851.50;5017867;28;20041;-89
2023/06/24 07:49:52;;;;;;;9.57;3.53;;;;;;;42.19;15.60;98845.88;5017704;28;20041;-83
2023/06/24 07:52:18;;;;;;;7.13;3.23;;;;;;;42.01;16.13;98839.56;5017552;28;20033;-86
2023/06/24 07:54:43;;;;;;;8.75;3.33;;;;;;;41.95;14.84;98853.44;5034193;28;20032;-83
2023/06/24 07:57:09;;;;;;;12.10;3.47;;;;;;;41.73;15.92;98842.63;5034291;28;20033;-83
2023/06/24 07:59:34;;;;;;;10.07;3.40;;;;;;;41.61;17.00;98845.16;5034005;28;20028;-82
2023/06/24 08:02:00;;;;;;;13.40;3.88;;;;;;;41.56;17.86;98846.13;5050328;28;20464;-80
2023/06/24 08:04:25;;;;;;;7.63;3.33;;;;;;;41.57;18.06;98845.00;5034782;28;20453;-81
2023/06/24 08:06:51;;;;;;;7.22;3.80;;;;;;;41.45;17.34;98842.91;5017417;28;20124;-84
2023/06/24 08:09:17;;;;;;;7.00;3.22;;;;;;;41.33;16.91;98848.19;5016912;28;20053;-82
2023/06/24 08:11:43;;;;;;;7.22;3.45;;;;;;;41.15;16.33;98841.81;5033459;28;20519;-82
2023/06/24 08:14:10;;;;;;;6.57;3.00;;;;;;;41.03;15.40;98856.13;5016758;28;20026;-81
2023/06/24 08:16:37;;;;;;;13.48;4.13;;;;;;;40.85;15.89;98852.53;5033219;28;20030;-81
2023/06/24 08:19:02;;;;;;;10.43;3.50;;;;;;;40.81;15.40;98848.78;5017137;28;20045;-81
2023/06/24 08:21:29;;;;;;;5.45;3.17;;;;;;;40.76;15.26;98854.38;5033645;28;20049;-82
2023/06/24 08:23:55;;;;;;;6.35;3.50;;;;;;;40.68;15.62;98855.97;5017056;28;20041;-81
2023/06/24 08:26:21;;;;;;;9.45;4.10;;;;;;;40.67;16.42;98852.41;5017109;28;20033;-82
2023/06/24 08:28:47;;;;;;;6.10;3.45;;;;;;;40.67;16.40;98854.34;5032758;28;20052;-84
2023/06/24 08:31:12;;;;;;;10.55;3.70;;;;;;;40.55;15.89;98851.38;5016678;28;20037;-78
2023/06/24 08:33:38;;;;;;;9.27;3.50;;;;;;;40.43;15.81;98854.69;5016591;28;20026;-82
2023/06/24 08:36:03;;;;;;;10.98;3.45;;;;;;;40.39;16.78;98851.75;5016626;28;20574;-77
2023/06/24 08:38:29;;;;;;;20.50;3.55;;;;;;;40.05;20.52;98853.13;5034269;28;20061;-74
2023/06/24 08:40:54;;;;;;;18.90;3.20;;;;;;;39.62;20.87;98867.19;5015876;28;20057;-75
2023/06/24 08:43:20;;;;;;;13.95;3.50;;;;;;;39.34;22.21;98856.25;5016519;28;20104;-72
2023/06/24 08:45:45;;;;;;;5.45;3.17;;;;;;;38.97;20.50;98855.34;5049557;28;20029;-72
2023/06/24 08:48:11;;;;;;;11.25;3.30;;;;;;;38.66;22.24;98853.16;5016127;28;20064;-74
2023/06/24 08:50:40;;;;;;;12.52;3.50;;;;;;;38.48;22.60;98857.56;5016024;28;20425;-75
2023/06/24 08:53:08;;;;;;;7.68;3.28;;;;;;;38.35;23.68;98850.97;5016621;28;20036;-73
2023/06/24 08:55:39;;;;;;;11.90;3.38;;;;;;;38.13;23.68;98850.72;5015845;28;20036;-76
2023/06/24 08:58:05;;;;;;;8.02;3.80;;;;;;;37.95;22.64;98845.00;5015714;28;20069;-75
2023/06/24 09:00:30;;;;;;;8.82;3.20;;;;;;;37.74;22.17;98851.88;5033307;28;20487;-73
2023/06/24 09:02:56;;;;;;;5.15;3.20;;;;;;;37.53;23.57;98837.66;5019127;28;20036;-76
2023/06/24 09:05:21;;;;;;;5.88;3.55;;;;;;;37.46;22.41;98843.47;5051481;28;20033;-75
2023/06/24 09:07:48;;;;;;;8.20;3.47;;;;;;;37.33;23.76;98844.22;5034920;28;20455;-74
2023/06/24 09:10:32;;;;;;;5.88;3.30;;;;;;;37.14;24.00;98834.06;5018146;28;20033;-73
2023/06/24 09:12:58;;;;;;;6.20;3.58;;;;;;;37.08;24.23;98840.66;5035367;28;20037;-78
2023/06/24 09:15:24;;;;;;;8.85;3.33;;;;;;;37.09;24.39;98839.56;5013749;28;20555;-73
2023/06/24 09:17:49;;;;;;;10.95;3.33;;;;;;;36.97;22.68;98836.44;5031441;28;20060;-78
2023/06/24 09:20:19;;;;;;;5.57;3.20;;;;;;;36.86;24.31;98828.41;5014383;28;20037;-78
2023/06/24 09:22:45;;;;;;;6.68;3.10;;;;;;;36.72;23.23;98838.28;5031555;28;20408;-76
2023/06/24 09:25:16;;;;;;;8.32;3.47;;;;;;;36.64;24.02;98839.75;5012228;28;20045;-77
2023/06/24 09:27:52;;;;;;;9.05;3.33;;;;;;;36.70;23.67;98835.03;5014972;28;20124;-79
2023/06/24 09:30:24;;;;;;;8.60;3.47;;;;;;;36.82;23.15;98835.50;4999515;28;20038;-79
2023/06/24 09:32:50;;;;;;;4.60;3.28;;;;;;;37.00;23.05;98838.56;5015822;28;20029;-80
2023/06/24 09:35:22;;;;;;;6.47;3.35;;;;;;;37.08;23.54;98832.50;4998359;28;20044;-82
2023/06/24 09:37:59;;;;;;;6.68;3.65;;;;;;;37.05;23.03;98835.78;5014705;28;20026;-76
2023/06/24 09:40:24;;;;;;;9.15;4.20;;;;;;;36.91;23.63;98832.94;5015868;28;20112;-76
2023/06/24 09:42:56;;;;;;;4.68;3.20;;;;;;;36.87;23.19;98829.19;5014317;28;20163;-76
2023/06/24 09:45:26;;;;;;;10.32;3.38;;;;;;;36.67;23.30;98827.47;5014193;28;20381;-79
2023/06/24 09:47:52;;;;;;;10.27;3.60;;;;;;;36.54;22.61;98818.88;5014319;28;20049;-78
2023/06/24 09:50:18;;;;;;;9.05;3.67;;;;;;;36.44;23.76;98812.75;5010109;28;20381;-77
2023/06/24 09:52:44;;;;;;;6.15;3.40;;;;;;;36.23;23.61;98808.25;5017665;28;20041;-77
2023/06/24 09:55:11;;;;;;;5.70;3.45;;;;;;;36.15;23.07;98814.31;5012091;28;20464;-79
2023/06/24 09:57:36;;;;;;;7.00;3.43;;;;;;;36.05;24.37;98806.22;5014373;28;20024;-76
2023/06/24 10:00:04;;;;;;;6.90;3.70;;;;;;;35.98;24.13;98806.56;5029734;28;20542;-77
2023/06/24 10:02:29;;;;;;;;;;;;;;;35.91;23.87;98797.09;5047503;28;20116;-77
2023/06/24 10:04:55;;;;;;;6.22;3.50;;;;;;;35.72;23.62;98797.72;5049199;28;20355;-79
2023/06/24 10:07:20;;;;;;;6.50;3.53;;;;;;;35.76;24.88;98796.13;5046278;28;20036;-77
2023/06/24 10:09:46;;;;;;;6.90;3.83;;;;;;;35.71;25.03;98787.97;5032137;28;20025;-75
2023/06/24 10:12:11;;;;;;;5.43;3.40;;;;;;;35.58;24.72;98792.13;5010866;28;20036;-77
2023/06/24 10:14:37;;;;;;;8.73;4.10;;;;;;;35.57;25.35;98784.28;5011879;28;20030;-77
2023/06/24 10:17:03;;;;;;;6.93;4.03;;;;;;;35.57;25.65;98787.00;4997250;28;20037;-78
2023/06/24 10:19:29;;;;;;;5.95;3.80;;;;;;;35.48;25.33;98782.13;4997075;28;20021;-77
2023/06/24 10:22:01;;;;;;;5.53;3.40;;;;;;;35.40;25.75;98780.00;5020495;28;20499;-78
2023/06/24 10:24:31;;;;;;;6.57;4.13;;;;;;;35.37;25.71;98768.91;5014593;28;20028;-77
2023/06/24 10:27:03;;;;;;;7.07;3.53;;;;;;;35.37;25.87;98769.72;5015163;28;20566;-80
2023/06/24 10:29:38;;;;;;;8.50;3.55;;;;;;;35.24;25.73;98754.03;5014742;28;20049;-76
2023/06/24 10:32:08;;;;;;;8.48;3.63;;;;;;;35.09;26.12;98752.19;5048473;28;20049;-76
2023/06/24 10:35:03;;;;;;;6.15;3.70;;;;;;;35.03;26.05;98750.56;5032276;28;20037;-78
2023/06/24 10:37:32;;;;;;;10.13;3.80;;;;;;;34.90;25.35;98754.69;5048851;28;20047;-78
2023/06/24 10:39:59;;;;;;;7.15;3.90;;;;;;;34.77;25.25;98750.69;5034295;28;20056;-78
2023/06/24 10:42:27;;;;;;;4.30;3.72;;;;;;;34.73;26.21;98749.59;5048458;28;20032;-76
2023/06/24 10:44:54;;;;;;;5.55;3.70;;;;;;;34.73;26.37;98746.88;5067419;28;20064;-78
2023/06/24 10:47:21;;;;;;;5.70;4.00;;;;;;;34.61;26.30;98736.31;5034096;28;20072;-76
2023/06/24 10:49:47;;;;;;;6.32;3.80;;;;;;;34.47;26.62;98727.94;5033880;28;20283;-78
2023/06/24 10:52:13;;;;;;;9.13;3.90;;;;;;;34.40;25.30;98744.50;5032561;28;20102;-77
2023/06/24 10:54:39;;;;;;;6.05;3.58;;;;;;;34.18;25.05;98730.44;5034248;28;20069;-76
2023/06/24 10:57:05;;;;;;;6.50;4.07;;;;;;;34.13;26.36;98728.53;5033220;28;20463;-78
2023/06/24 10:59:44;;;;;;;13.95;3.70;;;;;;;33.98;26.30;98725.81;5016484;28;20051;-77
2023/06/24 11:02:15;;;;;;;8.75;3.80;;;;;;;33.93;26.24;98732.06;5032134;28;20079;-76
2023/06/24 11:04:44;;;;;;;7.78;3.78;;;;;;;33.87;26.07;98723.13;5014427;28;20025;-77
2023/06/24 11:07:09;;;;;;;8.10;3.60;;;;;;;33.81;27.13;98720.66;5033630;28;20035;-75
2023/06/24 11:09:35;;;;;;;5.07;3.67;;;;;;;33.76;26.76;98729.59;5030925;28;20044;-75
2023/06/24 11:12:03;;;;;;;6.93;3.90;;;;;;;33.77;26.61;98719.59;5030502;28;20029;-77
2023/06/24 11:14:28;;;;;;;5.72;3.60;;;;;;;33.78;27.85;98713.91;5029899;28;20048;-72
2023/06/24 11:16:54;;;;;;;5.25;3.28;;;;;;;33.80;28.23;98721.78;5038837;28;20472;-75
2023/06/24 11:19:19;;;;;;;7.05;3.60;;;;;;;33.79;28.31;98720.13;5013964;28;20052;-74
2023/06/24 11:21:45;;;;;;;5.72;4.15;;;;;;;33.69;28.04;98716.31;5016317;28;20087;-73
2023/06/24 11:24:11;;;;;;;9.52;3.90;;;;;;;33.52;27.08;98711.13;5032727;28;20048;-72
2023/06/24 11:26:36;;;;;;;6.32;3.70;;;;;;;33.50;27.14;98709.81;5033098;28;20032;-68
2023/06/24 11:29:11;;;;;;;8.15;3.88;;;;;;;33.36;27.21;98702.19;5032587;28;20052;-68
2023/06/24 11:31:37;;;;;;;11.55;3.58;;;;;;;32.95;27.11;98701.25;5044110;28;20045;-71